Terminal Aerodrome Forecast
Issued by NWS

Home | Current Version | Previous Version | Text Only | Print | Product List | Glossary On
Versions: 1 2 3 4 5 6 7 8 9 10 11 12 13
000
FTUS45 KREV 202300
TAFMMH
TAF
KMMH 202324Z 2100/2124 22012G22KT P6SM VCTS SCT080CB BKN180
     FM210200 29008KT P6SM SCT120
     FM211900 12008KT P6SM VCTS SCT090CB BKN180=

USA.gov is the U.S. government's official web portal to all federal, state and local government web resources and services.